Dickinson, TX

12:04 PM CDT on July 30, 2016 (GMT -0500)
Nana's House | | Change Station

Elev 30 ft 29.49 °N, 95.10 °W | Updated 3 minutes ago

Scattered Clouds
Scattered Clouds
94.3 °F
Feels Like 113 °F
N
3.2
Wind Variable Wind from SSE

Today
High -- | Low -- °F
--% Chance of Precip.
Yesterday
High -- | Low -- °F
Precip. -- in
Pressure 30.01 in
Visibility 10.0 miles
Clouds Scattered Clouds 2100 ft
Heat Index 113 °F
Dew Point 79 °F
Humidity 62%
Rainfall 0.00 in
Snow Depth Not available.
6:39 AM 8:13 PM
Waning Crescent, 12% visible
METAR KEFD 301650Z 22003KT 10SM SCT021 32/24 A3001
Pressure 30.01 in
Visibility 10.0 miles
Clouds Scattered Clouds 2100 ft
Heat Index 113 °F
Dew Point 79 °F
Humidity 62%
Rainfall 0.00 in
Snow Depth Not available.
6:39 AM 8:13 PM
Waning Crescent, 12% visible
METAR KEFD 301650Z 22003KT 10SM SCT021 32/24 A3001

10-Day Weather Forecast

Almanac

Astronomy

Jul. 30, 2016 Rise Set
Actual Time
Civil Twilight
Nautical Twilight
Astronomical Twilight
Moon
Length of Visible Light
Length of Day
Tomorrow will be .
, % of the Moon is Illuminated

Today's Extremes

State Highs State Lows

Community

WunderPhotos

Upload Photos

1,928,598 photos uploaded!

WunderBlog® & News

Nearby

Air Quality

  Air Quality AQ Index Pollutant
Not available.

Snow Depth

Station Depth Elevation

Earthquake Activity

City Distance Mag. Time & Date
Minimum magnitude displayed is 2.5.

Coastal Water Temperatures

Place Temperature

Stations

Nearby Weather Stations

Station Location Temp. Windchill Dew Point Humidity Wind Precip. Elev Updated Type
                   

Watches & Warnings

There are currently no watches in effect.